Time;durP1;ratioP1;P1;durP2;ratioP2;P2;SDS_P1;SDS_P2;PMS_P1;PMS_P2;Temp;Humidity;BMP_temperature;BMP_pressure;BME280_temperature;BME280_humidity;BME280_pressure;Samples;Min_cycle;Max_cycle;Signal;HPM_P1;HPM_P2
2022/05/25 00:00:58;;;;;;;2.63;1.90;;;23.10;46.60;;;;;;4987638;28;20195;-45
2022/05/25 00:03:26;;;;;;;4.43;1.37;;;23.10;47.00;;;;;;4983404;28;20540;-44
2022/05/25 00:05:51;;;;;;;3.30;1.43;;;23.10;47.10;;;;;;4990015;28;20460;-44
2022/05/25 00:08:17;;;;;;;2.40;1.37;;;23.00;47.10;;;;;;4989350;28;20856;-47
2022/05/25 00:10:43;;;;;;;2.43;1.30;;;23.00;47.30;;;;;;4983122;28;20222;-45
2022/05/25 00:13:09;;;;;;;3.23;1.53;;;22.80;47.60;;;;;;4982757;28;20221;-45
2022/05/25 00:15:35;;;;;;;5.40;1.37;;;22.70;48.10;;;;;;4983369;28;20289;-43
2022/05/25 00:18:01;;;;;;;1.97;1.63;;;22.60;48.50;;;;;;4982154;28;20452;-44
2022/05/25 00:20:27;;;;;;;2.20;1.40;;;22.50;48.70;;;;;;4987993;28;20197;-43
2022/05/25 00:22:55;;;;;;;2.30;1.60;;;22.50;48.90;;;;;;4979490;28;21012;-44
2022/05/25 00:25:25;;;;;;;1.33;1.23;;;22.40;49.00;;;;;;4985245;28;20195;-44
2022/05/25 00:27:51;;;;;;;2.80;1.30;;;22.30;49.30;;;;;;4983520;28;20457;-44
2022/05/25 00:30:18;;;;;;;1.77;1.30;;;22.30;49.50;;;;;;4982450;28;20492;-44
2022/05/25 00:32:43;;;;;;;1.40;1.27;;;22.20;49.50;;;;;;4986449;28;20437;-44
2022/05/25 00:35:12;;;;;;;1.90;1.70;;;22.20;49.20;;;;;;4982221;28;20434;-43
2022/05/25 00:37:39;;;;;;;1.17;1.10;;;22.20;49.20;;;;;;4986931;28;20302;-45
2022/05/25 00:40:07;;;;;;;1.90;1.80;;;22.10;48.90;;;;;;4981868;28;20486;-44
2022/05/25 00:42:36;;;;;;;1.33;1.20;;;22.00;48.70;;;;;;4986030;28;21035;-44
2022/05/25 00:45:03;;;;;;;3.67;1.40;;;22.00;48.70;;;;;;4989474;28;20500;-43
2022/05/25 00:47:30;;;;;;;2.03;1.50;;;22.00;48.90;;;;;;4985871;28;20446;-43
2022/05/25 00:49:56;;;;;;;3.17;1.93;;;22.00;49.10;;;;;;4987410;28;20477;-45
2022/05/25 00:52:22;;;;;;;2.30;1.23;;;22.00;49.30;;;;;;4985818;28;20537;-44
2022/05/25 00:55:00;;;;;;;2.33;1.50;;;21.80;49.60;;;;;;4985326;28;20894;-45
2022/05/25 00:57:30;;;;;;;5.07;1.40;;;21.50;50.70;;;;;;4980777;28;20218;-44
2022/05/25 01:00:04;;;;;;;2.40;1.50;;;21.30;51.50;;;;;;4982496;28;20920;-44
2022/05/25 01:02:33;;;;;;;2.33;1.30;;;21.30;51.40;;;;;;4981974;28;20461;-44
2022/05/25 01:04:59;;;;;;;3.10;1.30;;;21.40;51.30;;;;;;4987580;28;20465;-43
2022/05/25 01:07:30;;;;;;;1.73;1.20;;;21.50;51.20;;;;;;4979801;28;20445;-43
2022/05/25 01:10:08;;;;;;;1.27;1.17;;;21.50;51.00;;;;;;4991565;28;20500;-44
2022/05/25 01:12:59;;;;;;;1.50;1.40;;;21.60;50.80;;;;;;4983351;28;20452;-46
2022/05/25 01:16:00;;;;;;;2.43;1.10;;;21.60;50.90;;;;;;4983163;28;20476;-43
2022/05/25 01:18:35;;;;;;;1.33;1.20;;;21.50;51.00;;;;;;4984647;28;20477;-43
2022/05/25 01:21:03;;;;;;;1.80;1.10;;;21.50;50.90;;;;;;4985554;28;20449;-44
2022/05/25 01:23:35;;;;;;;2.40;1.30;;;21.50;51.20;;;;;;4984826;28;20453;-45
2022/05/25 01:26:09;;;;;;;2.83;1.43;;;21.50;51.30;;;;;;4985399;28;20496;-44
2022/05/25 01:29:04;;;;;;;3.73;1.40;;;21.50;51.20;;;;;;4983275;28;20455;-44
2022/05/25 01:31:46;;;;;;;1.30;1.20;;;21.50;51.00;;;;;;4981166;28;20454;-45
2022/05/25 01:34:34;;;;;;;2.37;1.10;;;21.40;51.00;;;;;;4983350;28;20438;-43
2022/05/25 01:37:43;;;;;;;1.83;1.20;;;21.40;50.90;;;;;;4985971;28;20449;-44
2022/05/25 01:40:39;;;;;;;1.20;1.10;;;21.30;50.90;;;;;;4977558;28;20495;-43
2022/05/25 01:43:15;;;;;;;1.67;1.33;;;21.10;51.50;;;;;;4980372;28;20500;-44
2022/05/25 01:45:50;;;;;;;1.77;1.47;;;21.10;51.50;;;;;;4983890;28;20457;-44
2022/05/25 01:48:19;;;;;;;1.80;1.30;;;21.20;51.30;;;;;;4982970;28;20512;-43
2022/05/25 01:50:59;;;;;;;1.27;1.17;;;21.20;51.20;;;;;;4984568;28;20929;-43
2022/05/25 01:53:30;;;;;;;3.67;1.37;;;21.20;51.30;;;;;;4984701;28;20478;-46
2022/05/25 01:56:00;;;;;;;1.33;1.23;;;21.20;51.50;;;;;;4982178;28;20478;-43
2022/05/25 01:58:26;;;;;;;1.50;1.40;;;21.20;51.70;;;;;;4984676;28;20485;-44
2022/05/25 02:00:58;;;;;;;2.13;1.20;;;21.20;51.80;;;;;;4980918;28;20453;-43
2022/05/25 02:06:31;;;;;;;1.30;1.20;;;21.30;51.60;;;;;;4986181;28;20597;-43
2022/05/25 02:09:06;;;;;;;2.90;1.30;;;21.20;51.70;;;;;;4985665;28;20454;-43
2022/05/25 02:11:34;;;;;;;2.60;1.33;;;21.20;51.80;;;;;;4986041;28;20457;-43
2022/05/25 02:14:02;;;;;;;1.80;1.37;;;21.20;52.00;;;;;;4984900;28;20568;-43
2022/05/25 02:17:13;;;;;;;1.90;1.40;;;21.10;52.30;;;;;;4988651;28;20484;-43
2022/05/25 02:20:05;;;;;;;1.27;1.17;;;21.10;52.40;;;;;;4969241;28;20922;-43
2022/05/25 02:22:38;;;;;;;1.60;1.30;;;21.10;52.30;;;;;;4987428;28;20442;-43
2022/05/25 02:25:09;;;;;;;1.50;1.40;;;21.00;52.50;;;;;;4985620;28;20438;-44
2022/05/25 02:27:44;;;;;;;1.40;1.30;;;21.10;52.80;;;;;;4987284;28;20454;-43
2022/05/25 02:30:19;;;;;;;2.67;1.50;;;21.00;52.80;;;;;;4984707;28;20457;-45
2022/05/25 02:33:02;;;;;;;1.30;1.20;;;21.10;53.00;;;;;;4986504;28;20548;-43
2022/05/25 02:35:29;;;;;;;1.40;1.30;;;21.00;52.80;;;;;;4985402;28;20489;-45
2022/05/25 02:38:00;;;;;;;1.60;1.40;;;21.10;52.90;;;;;;4982000;28;20859;-43
2022/05/25 02:40:26;;;;;;;4.90;1.20;;;21.00;52.80;;;;;;4981002;28;20485;-47
2022/05/25 02:42:53;;;;;;;1.40;1.30;;;21.00;52.90;;;;;;4987084;28;20477;-44
2022/05/25 02:50:10;;;;;;;1.73;1.63;;;21.10;52.40;;;;;;4987867;28;20241;-43
2022/05/25 02:52:36;;;;;;;1.67;1.10;;;21.10;52.00;;;;;;4984912;28;20285;-43
2022/05/25 02:55:03;;;;;;;2.50;1.40;;;21.10;51.80;;;;;;4985066;28;20242;-43
2022/05/25 02:57:28;;;;;;;1.80;1.20;;;21.10;51.70;;;;;;4985522;28;20658;-44
2022/05/25 02:59:54;;;;;;;2.67;1.63;;;21.10;51.80;;;;;;4984751;28;20488;-44
2022/05/25 03:02:19;;;;;;;1.40;1.10;;;21.10;51.80;;;;;;4980767;28;20210;-45
2022/05/25 03:04:45;;;;;;;2.87;1.50;;;21.10;51.80;;;;;;4983834;28;22516;-43
2022/05/25 03:07:10;;;;;;;2.50;1.40;;;21.00;51.90;;;;;;4988859;28;20678;-43
2022/05/25 03:09:37;;;;;;;2.70;1.20;;;21.00;52.10;;;;;;4985323;28;20277;-43
2022/05/25 03:12:04;;;;;;;1.30;1.20;;;21.00;52.50;;;;;;4982684;28;20842;-44
2022/05/25 03:14:30;;;;;;;1.50;1.40;;;21.00;52.60;;;;;;4984565;28;20458;-44
2022/05/25 03:16:58;;;;;;;1.50;1.40;;;21.00;52.70;;;;;;4979459;28;20443;-44
2022/05/25 03:19:24;;;;;;;1.67;1.57;;;21.00;52.70;;;;;;4981859;28;20576;-43
2022/05/25 03:21:49;;;;;;;1.63;1.40;;;21.00;52.80;;;;;;4982732;28;20529;-44
2022/05/25 03:24:15;;;;;;;1.40;1.30;;;21.00;52.80;;;;;;4986177;28;20218;-43
2022/05/25 03:26:41;;;;;;;2.33;1.50;;;21.00;52.90;;;;;;4990191;28;20202;-44
2022/05/25 03:29:07;;;;;;;1.80;1.70;;;21.00;52.80;;;;;;4987478;28;20194;-44
2022/05/25 03:31:33;;;;;;;2.07;1.37;;;21.00;52.80;;;;;;4986212;28;20316;-45
2022/05/25 03:33:59;;;;;;;1.00;1.00;;;21.00;52.80;;;;;;4980609;28;20463;-46
2022/05/25 03:36:25;;;;;;;2.97;1.47;;;21.00;53.00;;;;;;4984737;28;20438;-42
2022/05/25 03:38:50;;;;;;;1.60;1.50;;;21.00;52.90;;;;;;4983192;28;20659;-45
2022/05/25 03:41:17;;;;;;;1.83;1.33;;;21.00;52.90;;;;;;4988797;28;20190;-42
2022/05/25 03:43:44;;;;;;;1.30;1.20;;;21.00;53.40;;;;;;4986857;28;20236;-45
2022/05/25 03:46:10;;;;;;;1.50;1.40;;;21.00;52.80;;;;;;4987993;28;20456;-44
2022/05/25 03:48:36;;;;;;;2.43;1.27;;;21.00;52.70;;;;;;4986240;28;20627;-43
2022/05/25 03:51:01;;;;;;;1.73;1.40;;;21.00;52.80;;;;;;4984412;28;20442;-43
2022/05/25 03:53:27;;;;;;;2.40;1.40;;;21.00;52.50;;;;;;4988456;28;20199;-42
2022/05/25 03:55:53;;;;;;;2.40;1.30;;;21.00;51.70;;;;;;4991263;28;20662;-43
2022/05/25 03:58:18;;;;;;;1.40;1.30;;;21.00;51.20;;;;;;4990372;28;20228;-44
2022/05/25 04:00:44;;;;;;;1.33;1.03;;;21.00;51.50;;;;;;4992261;28;20194;-45
2022/05/25 04:03:14;;;;;;;2.80;1.30;;;21.10;52.10;;;;;;4987252;28;20250;-43
2022/05/25 04:05:41;;;;;;;1.57;1.47;;;21.10;52.00;;;;;;4989391;28;20202;-44
2022/05/25 04:08:07;;;;;;;2.37;1.30;;;21.10;51.90;;;;;;4985341;28;20446;-43
2022/05/25 04:10:33;;;;;;;1.30;1.20;;;21.10;52.00;;;;;;4991905;28;20441;-45
2022/05/25 04:13:01;;;;;;;1.73;1.23;;;21.10;52.00;;;;;;4991663;28;20341;-44
2022/05/25 04:15:29;;;;;;;1.53;1.43;;;21.10;51.80;;;;;;4988862;28;20453;-43
2022/05/25 04:17:55;;;;;;;1.47;1.37;;;21.10;51.90;;;;;;4992515;28;20441;-44
2022/05/25 04:20:22;;;;;;;1.93;1.23;;;21.10;51.90;;;;;;4991582;28;20551;-43
2022/05/25 04:22:48;;;;;;;2.10;1.50;;;21.10;52.10;;;;;;4992542;28;20267;-43
2022/05/25 04:25:17;;;;;;;2.63;1.80;;;21.00;52.40;;;;;;4988671;28;21026;-43
2022/05/25 04:27:43;;;;;;;2.83;1.63;;;21.10;52.40;;;;;;4991380;28;20194;-42
2022/05/25 04:30:13;;;;;;;1.63;1.53;;;21.00;52.20;;;;;;4990243;28;20508;-42
2022/05/25 04:32:39;;;;;;;1.73;1.63;;;21.00;52.30;;;;;;4990821;28;20449;-42
2022/05/25 04:35:05;;;;;;;1.60;1.30;;;20.90;52.40;;;;;;4986820;28;20445;-44
2022/05/25 04:37:49;;;;;;;1.77;1.30;;;20.80;52.60;;;;;;4982929;28;20662;-43
2022/05/25 04:40:21;;;;;;;1.30;1.20;;;20.80;53.00;;;;;;4996584;28;20596;-43
2022/05/25 04:42:47;;;;;;;1.50;1.40;;;20.70;52.90;;;;;;4988092;28;20517;-42
2022/05/25 04:45:13;;;;;;;5.60;1.80;;;20.70;53.00;;;;;;4990933;28;20911;-43
2022/05/25 04:47:40;;;;;;;1.40;1.30;;;20.70;52.80;;;;;;4984844;28;20473;-43
2022/05/25 04:50:07;;;;;;;3.50;2.10;;;20.70;53.00;;;;;;4980905;28;20471;-43
2022/05/25 04:52:34;;;;;;;2.50;1.80;;;20.70;52.80;;;;;;4983189;28;20569;-44
2022/05/25 04:54:59;;;;;;;1.67;1.57;;;20.70;52.80;;;;;;4986196;28;20494;-43
2022/05/25 04:57:27;;;;;;;3.80;3.37;;;20.70;52.90;;;;;;4982152;28;20438;-42
2022/05/25 05:00:00;;;;;;;2.60;1.80;;;20.80;53.20;;;;;;4989392;28;20261;-42
2022/05/25 05:02:30;;;;;;;2.00;1.40;;;20.80;53.10;;;;;;4985518;28;20437;-42
2022/05/25 05:04:57;;;;;;;2.23;1.60;;;20.80;53.00;;;;;;4988441;28;20460;-43
2022/05/25 05:07:31;;;;;;;4.00;1.40;;;20.80;53.20;;;;;;4984746;28;20496;-42
2022/05/25 05:09:56;;;;;;;1.37;1.27;;;20.90;52.90;;;;;;4987053;28;20454;-42
2022/05/25 05:12:22;;;;;;;5.27;1.63;;;20.90;52.10;;;;;;4990680;28;20461;-42
2022/05/25 05:14:47;;;;;;;1.93;1.20;;;20.90;52.60;;;;;;4984005;28;20207;-42
2022/05/25 05:17:13;;;;;;;4.63;1.60;;;21.00;52.20;;;;;;4986738;28;20560;-43
2022/05/25 05:19:39;;;;;;;3.60;1.40;;;21.20;51.30;;;;;;4984449;28;20231;-42
2022/05/25 05:22:04;;;;;;;2.27;1.30;;;21.40;50.80;;;;;;4982420;28;20210;-44
2022/05/25 05:24:32;;;;;;;2.40;1.37;;;21.50;50.50;;;;;;4987169;28;20278;-42
2022/05/25 05:26:58;;;;;;;2.40;1.60;;;21.60;50.70;;;;;;4987175;28;20198;-42
2022/05/25 05:29:26;;;;;;;2.77;2.47;;;21.60;50.90;;;;;;4987441;28;20614;-44
2022/05/25 05:31:52;;;;;;;3.07;2.87;;;21.60;51.20;;;;;;4988387;28;20458;-42
2022/05/25 05:34:18;;;;;;;2.17;1.80;;;21.50;51.30;;;;;;4982949;28;20449;-42
2022/05/25 05:36:53;;;;;;;2.30;2.10;;;21.50;51.30;;;;;;4985531;28;20195;-43
2022/05/25 05:39:21;;;;;;;4.57;1.90;;;21.50;51.30;;;;;;4975179;28;20325;-44
2022/05/25 05:41:56;;;;;;;3.53;1.77;;;21.40;51.40;;;;;;4987819;28;20441;-43
2022/05/25 05:44:25;;;;;;;1.60;1.50;;;21.40;51.50;;;;;;4983867;28;20438;-43
2022/05/25 05:46:56;;;;;;;3.07;1.80;;;21.40;51.60;;;;;;4984813;28;20881;-42
2022/05/25 05:49:22;;;;;;;4.17;2.03;;;21.20;51.80;;;;;;4988744;28;20452;-43
2022/05/25 05:51:48;;;;;;;2.10;1.90;;;21.00;52.70;;;;;;4990755;28;21883;-43
2022/05/25 05:54:14;;;;;;;2.43;2.30;;;20.80;53.40;;;;;;4984785;28;20494;-43
2022/05/25 05:56:39;;;;;;;3.10;1.90;;;20.80;53.70;;;;;;4986814;28;20277;-44
2022/05/25 05:59:05;;;;;;;2.03;1.80;;;20.80;53.40;;;;;;4987732;28;20492;-43
2022/05/25 06:01:31;;;;;;;3.93;2.20;;;20.90;53.30;;;;;;4984574;28;20237;-43
2022/05/25 06:03:56;;;;;;;3.10;1.70;;;20.90;53.10;;;;;;4983369;28;20637;-42
2022/05/25 06:06:23;;;;;;;3.50;1.80;;;21.00;52.80;;;;;;4999678;28;20465;-42
2022/05/25 06:08:49;;;;;;;3.30;1.70;;;21.00;52.40;;;;;;4985635;28;20231;-42
2022/05/25 06:11:17;;;;;;;1.93;1.60;;;20.60;52.70;;;;;;4997575;28;20439;-44
2022/05/25 06:13:43;;;;;;;2.80;2.17;;;20.60;53.00;;;;;;4988206;28;20449;-42
2022/05/25 06:21:37;;;;;;;2.30;1.90;;;20.70;49.70;;;;;;4985493;28;20532;-44
2022/05/25 06:24:03;;;;;;;1.77;1.47;;;20.80;49.30;;;;;;4985194;28;20586;-43
2022/05/25 06:26:30;;;;;;;2.90;1.40;;;21.00;48.50;;;;;;4988743;28;20198;-42
2022/05/25 06:28:57;;;;;;;1.60;1.50;;;21.20;48.10;;;;;;4986183;28;20457;-43
2022/05/25 06:31:23;;;;;;;2.13;1.50;;;21.10;48.00;;;;;;4980335;28;20438;-42
2022/05/25 06:33:49;;;;;;;3.70;1.40;;;21.30;47.90;;;;;;4990760;28;20452;-42
2022/05/25 06:36:18;;;;;;;3.93;1.93;;;21.50;47.40;;;;;;4985404;28;20449;-42
2022/05/25 06:38:44;;;;;;;1.50;1.40;;;21.60;47.00;;;;;;4986232;28;20486;-42
2022/05/25 06:41:10;;;;;;;1.33;1.20;;;21.70;47.20;;;;;;4976232;28;21134;-45
2022/05/25 06:43:36;;;;;;;3.60;1.73;;;21.80;46.90;;;;;;4975792;28;20569;-44
2022/05/25 06:46:02;;;;;;;1.40;1.30;;;21.80;46.60;;;;;;4983422;28;20536;-43
2022/05/25 06:48:28;;;;;;;6.20;1.27;;;21.90;46.60;;;;;;4983125;28;20199;-43
2022/05/25 06:50:53;;;;;;;1.50;1.20;;;22.00;45.80;;;;;;4975131;28;20450;-43
2022/05/25 06:53:19;;;;;;;1.93;1.57;;;22.10;45.30;;;;;;4988133;28;20230;-43
2022/05/25 06:55:46;;;;;;;1.57;1.47;;;22.20;45.50;;;;;;4989814;28;20227;-44
2022/05/25 06:58:11;;;;;;;2.73;1.23;;;22.20;44.70;;;;;;4984963;28;20191;-43
2022/05/25 07:00:37;;;;;;;1.47;1.37;;;22.30;44.40;;;;;;4989027;28;20466;-42
2022/05/25 07:03:04;;;;;;;1.70;1.20;;;22.40;44.50;;;;;;4989371;28;20290;-42
2022/05/25 07:05:29;;;;;;;3.20;1.53;;;22.50;44.10;;;;;;4989191;28;20202;-44
2022/05/25 07:07:55;;;;;;;2.50;1.63;;;22.70;43.60;;;;;;4989281;28;20939;-42
2022/05/25 07:10:21;;;;;;;1.80;1.30;;;22.70;42.90;;;;;;4981172;28;20619;-43
2022/05/25 07:12:47;;;;;;;1.80;1.60;;;22.60;43.30;;;;;;4989734;28;20264;-44
2022/05/25 07:15:13;;;;;;;1.93;1.30;;;22.70;43.50;;;;;;4990145;28;20445;-44
2022/05/25 07:17:38;;;;;;;1.47;1.10;;;22.70;43.30;;;;;;4989823;28;20492;-42
2022/05/25 07:20:06;;;;;;;1.53;1.20;;;22.80;43.10;;;;;;4988841;28;20752;-43
2022/05/25 07:22:32;;;;;;;1.30;1.07;;;23.00;43.20;;;;;;4980748;28;20199;-43
2022/05/25 07:24:58;;;;;;;1.50;1.40;;;23.10;42.90;;;;;;4982468;28;20792;-46
2022/05/25 07:27:24;;;;;;;2.20;1.33;;;23.30;43.80;;;;;;4976662;28;20506;-43
2022/05/25 07:29:49;;;;;;;4.63;1.50;;;23.30;43.10;;;;;;4982542;28;20674;-42
2022/05/25 07:32:15;;;;;;;3.63;1.50;;;23.50;43.20;;;;;;4985753;28;20186;-43
2022/05/25 07:35:03;;;;;;;2.70;1.60;;;23.70;43.40;;;;;;4990216;28;20286;-43
2022/05/25 07:37:33;;;;;;;2.03;1.10;;;23.90;42.50;;;;;;4988466;28;20545;-44
2022/05/25 07:40:05;;;;;;;1.70;1.30;;;24.00;43.50;;;;;;4990278;28;20627;-43
2022/05/25 07:42:32;;;;;;;2.60;1.90;;;24.20;41.30;;;;;;4986963;28;20849;-43
2022/05/25 07:44:59;;;;;;;1.60;1.30;;;24.30;42.00;;;;;;4982367;28;20446;-43
2022/05/25 07:47:28;;;;;;;2.00;1.43;;;24.50;42.30;;;;;;4983814;28;20470;-45
2022/05/25 07:49:54;;;;;;;2.80;1.17;;;24.70;42.10;;;;;;4984852;28;20933;-43
2022/05/25 07:52:22;;;;;;;3.73;1.63;;;24.90;42.30;;;;;;4988048;28;20453;-43
2022/05/25 07:54:48;;;;;;;2.43;1.47;;;25.10;41.20;;;;;;4977223;28;20250;-44
2022/05/25 07:57:14;;;;;;;1.53;1.43;;;25.20;40.00;;;;;;4985932;28;20445;-43
2022/05/25 07:59:40;;;;;;;2.30;1.40;;;25.30;39.60;;;;;;4985560;28;20497;-45
2022/05/25 08:07:44;;;;;;;3.73;1.37;;;25.60;39.60;;;;;;4983116;28;20881;-43
2022/05/25 08:10:23;;;;;;;2.10;1.87;;;25.70;39.30;;;;;;4986978;28;20957;-43
2022/05/25 08:12:51;;;;;;;3.10;1.70;;;25.60;37.90;;;;;;4980653;28;21286;-43
2022/05/25 08:15:17;;;;;;;1.60;1.50;;;25.70;38.00;;;;;;4993135;28;20448;-43
2022/05/25 08:17:43;;;;;;;3.33;2.07;;;25.60;37.70;;;;;;4993238;28;20444;-43
2022/05/25 08:20:10;;;;;;;1.57;1.47;;;25.60;37.40;;;;;;4991868;28;20489;-44
2022/05/25 08:22:37;;;;;;;3.47;1.40;;;25.60;37.50;;;;;;4992308;28;20194;-43
2022/05/25 08:25:04;;;;;;;2.10;1.50;;;25.70;38.10;;;;;;4993344;28;20450;-43
2022/05/25 08:27:31;;;;;;;2.23;1.10;;;25.70;38.70;;;;;;4980274;28;20450;-43
2022/05/25 08:29:57;;;;;;;2.43;1.27;;;25.90;36.90;;;;;;4987708;28;20595;-43
2022/05/25 08:32:23;;;;;;;1.97;1.20;;;26.00;36.60;;;;;;4989428;28;20488;-44
2022/05/25 08:34:49;;;;;;;2.37;1.30;;;26.10;35.80;;;;;;4987255;28;20905;-47
2022/05/25 08:37:14;;;;;;;1.60;1.50;;;25.90;35.70;;;;;;4990814;28;20677;-43
2022/05/25 08:39:40;;;;;;;1.10;1.00;;;26.10;38.50;;;;;;4990859;28;20318;-42
2022/05/25 08:42:12;;;;;;;2.20;1.50;;;26.20;35.30;;;;;;4992574;28;20195;-43
2022/05/25 08:44:38;;;;;;;2.50;1.10;;;26.30;34.40;;;;;;4987185;28;20195;-43
2022/05/25 08:47:07;;;;;;;4.27;1.30;;;26.50;34.20;;;;;;4984507;28;20442;-43
2022/05/25 08:49:34;;;;;;;1.10;1.00;;;26.50;34.30;;;;;;4988381;28;20796;-43
2022/05/25 08:52:02;;;;;;;4.43;1.33;;;26.70;34.30;;;;;;4987828;28;20446;-43
2022/05/25 08:54:29;;;;;;;1.47;1.13;;;26.80;33.90;;;;;;4988136;28;20504;-43
2022/05/25 08:57:14;;;;;;;2.60;1.10;;;27.00;34.20;;;;;;4981538;28;20454;-44
2022/05/25 09:00:02;;;;;;;4.17;1.60;;;27.10;33.30;;;;;;4986872;28;20500;-44
2022/05/25 09:02:57;;;;;;;1.77;1.30;;;27.40;32.00;;;;;;4985042;28;20960;-42
2022/05/25 09:05:32;;;;;;;2.60;1.20;;;27.50;33.40;;;;;;4988545;28;20452;-42
2022/05/25 09:08:28;;;;;;;4.00;1.87;;;27.60;32.40;;;;;;4989944;28;20465;-43
2022/05/25 09:11:15;;;;;;;1.53;1.20;;;27.40;32.20;;;;;;4981650;28;20991;-45
2022/05/25 09:13:49;;;;;;;2.20;1.10;;;27.40;32.50;;;;;;4980807;28;20453;-43
2022/05/25 09:16:22;;;;;;;1.70;1.20;;;27.20;33.20;;;;;;4981082;28;20448;-43
2022/05/25 09:19:07;;;;;;;1.37;1.27;;;26.70;33.40;;;;;;4990136;28;22335;-43
2022/05/25 09:21:43;;;;;;;1.60;1.23;;;26.70;34.10;;;;;;4987586;28;20472;-43
2022/05/25 09:24:17;;;;;;;1.87;1.07;;;26.80;34.20;;;;;;4989988;28;20813;-46
2022/05/25 09:26:43;;;;;;;2.17;1.40;;;27.00;34.90;;;;;;4985997;28;20458;-43
2022/05/25 09:29:10;;;;;;;4.40;1.40;;;27.00;33.90;;;;;;4989704;28;20454;-44
2022/05/25 09:31:47;;;;;;;3.33;1.20;;;27.10;33.80;;;;;;4985532;28;20538;-44
2022/05/25 09:34:34;;;;;;;1.90;1.20;;;27.20;34.30;;;;;;4981909;28;20445;-44
2022/05/25 09:37:09;;;;;;;1.73;1.43;;;27.20;33.70;;;;;;4979649;28;20458;-44
2022/05/25 09:39:41;;;;;;;2.07;1.20;;;27.20;33.00;;;;;;4988311;28;20535;-44
2022/05/25 09:42:12;;;;;;;1.83;1.10;;;27.10;33.30;;;;;;4986659;28;20449;-45
2022/05/25 09:44:38;;;;;;;2.30;1.40;;;27.10;34.20;;;;;;4987071;28;20537;-46
2022/05/25 09:47:15;;;;;;;2.63;1.40;;;27.20;34.20;;;;;;4989513;28;20596;-46
2022/05/25 09:49:44;;;;;;;3.47;1.30;;;27.40;33.90;;;;;;4988434;28;20198;-43
2022/05/25 09:52:23;;;;;;;4.67;1.60;;;27.50;33.70;;;;;;4990335;28;20446;-47
2022/05/25 09:55:02;;;;;;;3.83;1.80;;;27.50;32.60;;;;;;4986272;28;20485;-47
2022/05/25 09:57:36;;;;;;;5.90;2.93;;;27.70;32.00;;;;;;4987150;28;22409;-47
2022/05/25 10:00:09;;;;;;;2.77;1.40;;;27.70;32.70;;;;;;4973796;28;20490;-45
2022/05/25 10:02:42;;;;;;;1.60;1.30;;;27.80;32.70;;;;;;4989044;28;20446;-45
2022/05/25 10:05:32;;;;;;;2.17;1.40;;;27.70;31.50;;;;;;4989208;28;20532;-47
2022/05/25 10:08:20;;;;;;;1.97;1.50;;;27.90;31.20;;;;;;4981133;28;20476;-46
2022/05/25 10:10:56;;;;;;;2.60;1.10;;;27.90;31.10;;;;;;4973425;28;20463;-44
2022/05/25 10:13:35;;;;;;;2.03;1.30;;;27.60;31.40;;;;;;4980611;28;20533;-46
2022/05/25 10:16:21;;;;;;;1.83;1.63;;;27.60;31.60;;;;;;4985831;28;20453;-44
2022/05/25 10:18:48;;;;;;;2.93;1.10;;;27.80;31.40;;;;;;4987255;28;20568;-47
2022/05/25 10:21:36;;;;;;;2.97;1.30;;;27.90;31.60;;;;;;4982699;28;20452;-44
2022/05/25 10:24:16;;;;;;;2.17;1.30;;;28.10;31.70;;;;;;4988734;28;21252;-43
2022/05/25 10:26:48;;;;;;;2.40;1.40;;;28.20;30.70;;;;;;5003714;28;20453;-45
2022/05/25 10:38:28;;;;;;;2.73;2.00;;;28.90;31.10;;;;;;4983700;28;20992;-47
2022/05/25 10:40:58;;;;;;;5.27;3.70;;;29.10;30.60;;;;;;4990141;28;20489;-47
2022/05/25 10:43:29;;;;;;;5.27;3.30;;;29.30;31.80;;;;;;4987118;28;21024;-48
2022/05/25 10:45:58;;;;;;;2.93;2.30;;;29.60;30.60;;;;;;4988622;28;20515;-44
2022/05/25 10:48:56;;;;;;;2.30;1.80;;;29.70;30.40;;;;;;4988707;28;20450;-44
2022/05/25 10:51:33;;;;;;;2.70;2.47;;;29.70;29.40;;;;;;4982634;28;20464;-46
2022/05/25 10:57:37;;;;;;;2.20;1.93;;;29.50;29.10;;;;;;4984982;28;20457;-44
2022/05/25 11:00:08;;;;;;;3.60;1.77;;;29.40;29.10;;;;;;4982174;28;20485;-43
2022/05/25 11:02:55;;;;;;;6.27;2.47;;;28.90;29.30;;;;;;4985440;28;22316;-43
2022/05/25 11:05:34;;;;;;;3.70;1.57;;;28.80;29.70;;;;;;4977374;28;20811;-44
2022/05/25 11:08:31;;;;;;;1.67;1.57;;;28.80;30.20;;;;;;5003871;28;20500;-47
2022/05/25 11:11:23;;;;;;;1.80;1.43;;;28.90;29.90;;;;;;4979036;28;20441;-46
2022/05/25 11:13:57;;;;;;;4.03;1.83;;;28.80;30.00;;;;;;4987750;28;20915;-47
2022/05/25 11:17:02;;;;;;;4.37;1.10;;;28.80;30.90;;;;;;4985015;28;20440;-45
2022/05/25 11:19:48;;;;;;;1.13;0.90;;;28.80;29.70;;;;;;4981446;28;20580;-43
2022/05/25 11:22:39;;;;;;;3.80;2.10;;;28.80;29.60;;;;;;4982477;28;20449;-45
2022/05/25 11:25:14;;;;;;;1.27;1.00;;;28.80;29.70;;;;;;4986534;28;20456;-45
2022/05/25 11:27:56;;;;;;;1.03;1.00;;;28.90;29.10;;;;;;4985184;28;20459;-47
2022/05/25 11:30:35;;;;;;;1.50;1.07;;;28.80;28.90;;;;;;4985137;28;20509;-45
2022/05/25 11:33:39;;;;;;;1.63;1.20;;;28.60;28.80;;;;;;4986023;28;20786;-44
2022/05/25 11:36:12;;;;;;;1.43;1.00;;;28.60;29.60;;;;;;5003899;28;20453;-44
2022/05/25 11:38:56;;;;;;;1.53;1.30;;;28.70;30.00;;;;;;4990748;28;20473;-44
2022/05/25 11:41:37;;;;;;;3.33;1.40;;;28.80;31.50;;;;;;4987865;28;20468;-43
2022/05/25 11:44:40;;;;;;;2.50;1.00;;;29.00;29.40;;;;;;4987433;28;20461;-45
2022/05/25 11:47:21;;;;;;;2.10;0.93;;;29.30;29.70;;;;;;4992440;28;20453;-47
2022/05/25 11:50:27;;;;;;;2.60;1.13;;;29.50;29.00;;;;;;4988082;28;20445;-44
2022/05/25 11:53:19;;;;;;;3.93;1.40;;;29.10;28.20;;;;;;4986488;28;20472;-43
2022/05/25 11:55:59;;;;;;;1.83;1.40;;;29.00;28.60;;;;;;4990077;28;20478;-45
2022/05/25 11:58:38;;;;;;;1.50;0.93;;;28.90;28.20;;;;;;4991736;28;20505;-43
2022/05/25 12:01:19;;;;;;;1.80;1.30;;;29.00;29.20;;;;;;4989021;28;20474;-43
2022/05/25 12:04:00;;;;;;;1.93;1.00;;;29.10;30.80;;;;;;4985880;28;20456;-43
2022/05/25 12:06:46;;;;;;;3.10;1.30;;;29.30;30.00;;;;;;4989763;28;20465;-45
2022/05/25 12:09:20;;;;;;;1.00;0.90;;;29.40;29.90;;;;;;4990061;28;20465;-44
2022/05/25 12:12:20;;;;;;;1.53;1.20;;;29.40;29.30;;;;;;4982597;28;20507;-45
2022/05/25 12:14:54;;;;;;;3.60;1.27;;;29.40;28.50;;;;;;4985877;28;20453;-43
2022/05/25 12:17:50;;;;;;;2.80;1.10;;;29.50;28.70;;;;;;4982973;28;21030;-45
2022/05/25 12:20:34;;;;;;;2.27;1.30;;;29.60;28.60;;;;;;4986612;28;20568;-43
2022/05/25 12:23:05;;;;;;;1.20;1.07;;;29.90;29.40;;;;;;4985239;28;20453;-43
2022/05/25 12:25:32;;;;;;;1.47;1.17;;;30.10;28.10;;;;;;4984488;28;20829;-44
2022/05/25 12:28:01;;;;;;;2.63;1.30;;;30.10;29.30;;;;;;4982947;28;20532;-43
2022/05/25 12:30:36;;;;;;;0.97;0.83;;;30.30;29.20;;;;;;4979317;28;20450;-45
2022/05/25 12:33:05;;;;;;;1.43;1.10;;;30.60;27.90;;;;;;4986332;28;20990;-45
2022/05/25 12:35:33;;;;;;;2.50;1.10;;;30.70;27.70;;;;;;4987308;28;20983;-43
2022/05/25 12:38:01;;;;;;;1.23;0.90;;;30.60;27.60;;;;;;4983828;28;20452;-45
2022/05/25 12:40:26;;;;;;;2.03;1.10;;;30.60;27.30;;;;;;4982210;28;20588;-44
2022/05/25 12:42:52;;;;;;;2.07;1.40;;;30.50;26.80;;;;;;4982068;28;20874;-44
2022/05/25 12:48:31;;;;;;;2.17;1.47;;;30.30;27.80;;;;;;4986863;28;20484;-44
2022/05/25 12:51:08;;;;;;;5.37;1.13;;;30.10;28.00;;;;;;4985134;28;20457;-43
2022/05/25 12:53:39;;;;;;;2.60;0.90;;;30.00;28.40;;;;;;4987952;28;22203;-44
2022/05/25 12:56:15;;;;;;;3.33;0.90;;;30.20;27.40;;;;;;4989894;28;20467;-44
2022/05/25 12:58:43;;;;;;;1.77;1.67;;;30.30;26.70;;;;;;4986285;28;20461;-43
2022/05/25 13:01:34;;;;;;;3.17;1.10;;;30.20;27.60;;;;;;4987550;28;20462;-44
2022/05/25 13:04:12;;;;;;;1.57;1.03;;;30.20;27.40;;;;;;4991597;28;20820;-44
2022/05/25 13:06:38;;;;;;;2.60;1.30;;;30.40;27.40;;;;;;4988801;28;21131;-43
2022/05/25 13:09:05;;;;;;;1.80;0.93;;;30.40;26.40;;;;;;4986415;28;20457;-44
2022/05/25 13:11:36;;;;;;;2.97;1.27;;;30.30;26.80;;;;;;4992128;28;20191;-43
2022/05/25 13:14:06;;;;;;;2.93;0.97;;;30.00;26.80;;;;;;4992686;28;20453;-43
2022/05/25 13:16:41;;;;;;;1.67;0.90;;;29.90;27.50;;;;;;4987988;28;20450;-43
2022/05/25 13:19:18;;;;;;;2.20;0.90;;;29.80;27.40;;;;;;4991385;28;20580;-44
2022/05/25 13:22:22;;;;;;;2.73;1.00;;;29.90;28.70;;;;;;4988647;28;20441;-45
2022/05/25 13:25:03;;;;;;;3.63;1.03;;;30.20;28.40;;;;;;4988251;28;20446;-44
2022/05/25 13:28:08;;;;;;;1.70;1.03;;;30.50;28.00;;;;;;4986313;28;20449;-44
2022/05/25 13:30:40;;;;;;;4.20;1.00;;;30.60;27.00;;;;;;4989732;28;20556;-43
2022/05/25 13:33:21;;;;;;;1.60;1.37;;;30.50;27.00;;;;;;4990483;28;20789;-44
2022/05/25 13:36:07;;;;;;;1.63;1.07;;;30.30;27.20;;;;;;4985378;28;20809;-45
2022/05/25 13:38:45;;;;;;;1.30;1.20;;;30.40;28.00;;;;;;4989505;28;20457;-44
2022/05/25 13:41:22;;;;;;;4.10;1.33;;;30.30;27.90;;;;;;4977135;28;20533;-43
2022/05/25 13:43:56;;;;;;;1.40;1.30;;;30.50;27.70;;;;;;4982556;28;20489;-46
2022/05/25 13:46:46;;;;;;;2.80;1.10;;;30.50;27.60;;;;;;4988444;28;20458;-47
2022/05/25 13:49:17;;;;;;;2.70;1.27;;;30.50;26.30;;;;;;4989634;28;20806;-45